sensor_id;sensor_type;location;lat;lon;timestamp;temperature;humidity
70089;HTU21D;57460;47.134;19.888;2023-05-07T00:01:37;17.48;71.01
70089;HTU21D;57460;47.134;19.888;2023-05-07T00:04:03;17.43;72.57
70089;HTU21D;57460;47.134;19.888;2023-05-07T00:06:29;17.52;70.46
70089;HTU21D;57460;47.134;19.888;2023-05-07T00:08:56;17.44;73.49
70089;HTU21D;57460;47.134;19.888;2023-05-07T00:11:23;17.25;76.50
70089;HTU21D;57460;47.134;19.888;2023-05-07T00:13:49;17.24;75.71
70089;HTU21D;57460;47.134;19.888;2023-05-07T00:16:14;17.37;74.41
70089;HTU21D;57460;47.134;19.888;2023-05-07T00:18:40;17.60;71.13
70089;HTU21D;57460;47.134;19.888;2023-05-07T00:21:08;17.38;72.27
70089;HTU21D;57460;47.134;19.888;2023-05-07T00:23:34;17.47;71.76
70089;HTU21D;57460;47.134;19.888;2023-05-07T00:26:02;17.31;73.82
70089;HTU21D;57460;47.134;19.888;2023-05-07T00:28:28;17.44;73.18
70089;HTU21D;57460;47.134;19.888;2023-05-07T00:30:54;17.43;74.22
70089;HTU21D;57460;47.134;19.888;2023-05-07T00:33:20;17.62;71.55
70089;HTU21D;57460;47.134;19.888;2023-05-07T00:35:46;17.47;72.75
70089;HTU21D;57460;47.134;19.888;2023-05-07T00:38:12;17.47;73.81
70089;HTU21D;57460;47.134;19.888;2023-05-07T00:40:38;17.43;75.50
70089;HTU21D;57460;47.134;19.888;2023-05-07T00:43:04;17.41;76.05
70089;HTU21D;57460;47.134;19.888;2023-05-07T00:45:30;17.39;75.69
70089;HTU21D;57460;47.134;19.888;2023-05-07T00:47:58;17.35;76.47
70089;HTU21D;57460;47.134;19.888;2023-05-07T00:50:26;17.37;75.50
70089;HTU21D;57460;47.134;19.888;2023-05-07T00:52:52;17.34;75.55
70089;HTU21D;57460;47.134;19.888;2023-05-07T00:55:18;17.21;76.99
70089;HTU21D;57460;47.134;19.888;2023-05-07T00:57:45;17.26;75.05
70089;HTU21D;57460;47.134;19.888;2023-05-07T01:00:11;17.32;75.29
70089;HTU21D;57460;47.134;19.888;2023-05-07T01:02:38;17.38;75.67
70089;HTU21D;57460;47.134;19.888;2023-05-07T01:05:06;17.43;74.99
70089;HTU21D;57460;47.134;19.888;2023-05-07T01:07:35;17.40;75.41
70089;HTU21D;57460;47.134;19.888;2023-05-07T01:10:02;17.37;75.06
70089;HTU21D;57460;47.134;19.888;2023-05-07T01:12:30;17.36;75.93
70089;HTU21D;57460;47.134;19.888;2023-05-07T01:14:57;17.32;73.74
70089;HTU21D;57460;47.134;19.888;2023-05-07T01:17:23;17.20;74.75
70089;HTU21D;57460;47.134;19.888;2023-05-07T01:19:49;17.11;75.47
70089;HTU21D;57460;47.134;19.888;2023-05-07T01:22:32;17.20;75.28
70089;HTU21D;57460;47.134;19.888;2023-05-07T01:24:58;17.31;74.12
70089;HTU21D;57460;47.134;19.888;2023-05-07T01:27:25;17.38;74.38
70089;HTU21D;57460;47.134;19.888;2023-05-07T01:29:51;17.40;74.17
70089;HTU21D;57460;47.134;19.888;2023-05-07T01:32:21;17.44;73.69
70089;HTU21D;57460;47.134;19.888;2023-05-07T01:34:50;17.50;73.29
70089;HTU21D;57460;47.134;19.888;2023-05-07T01:37:17;17.49;75.15
70089;HTU21D;57460;47.134;19.888;2023-05-07T01:39:43;17.53;75.02
70089;HTU21D;57460;47.134;19.888;2023-05-07T01:42:09;17.44;76.02
70089;HTU21D;57460;47.134;19.888;2023-05-07T01:44:35;17.37;74.52
70089;HTU21D;57460;47.134;19.888;2023-05-07T01:47:02;17.34;74.28
70089;HTU21D;57460;47.134;19.888;2023-05-07T01:49:28;17.38;74.06
70089;HTU21D;57460;47.134;19.888;2023-05-07T01:51:53;17.41;74.15
70089;HTU21D;57460;47.134;19.888;2023-05-07T01:54:25;17.29;75.02
70089;HTU21D;57460;47.134;19.888;2023-05-07T01:56:53;17.21;75.47
70089;HTU21D;57460;47.134;19.888;2023-05-07T01:59:18;17.18;75.63
70089;HTU21D;57460;47.134;19.888;2023-05-07T02:01:44;17.16;76.27
70089;HTU21D;57460;47.134;19.888;2023-05-07T02:04:10;17.17;75.28
70089;HTU21D;57460;47.134;19.888;2023-05-07T02:06:36;17.14;75.36
70089;HTU21D;57460;47.134;19.888;2023-05-07T02:09:02;17.18;73.99
70089;HTU21D;57460;47.134;19.888;2023-05-07T02:11:27;17.23;74.70
70089;HTU21D;57460;47.134;19.888;2023-05-07T02:13:53;17.30;73.51
70089;HTU21D;57460;47.134;19.888;2023-05-07T02:16:19;17.39;74.15
70089;HTU21D;57460;47.134;19.888;2023-05-07T02:18:45;17.49;72.25
70089;HTU21D;57460;47.134;19.888;2023-05-07T02:21:11;17.59;72.54
70089;HTU21D;57460;47.134;19.888;2023-05-07T02:23:36;17.65;71.33
70089;HTU21D;57460;47.134;19.888;2023-05-07T02:26:03;17.69;71.10
70089;HTU21D;57460;47.134;19.888;2023-05-07T02:28:29;17.76;70.35
70089;HTU21D;57460;47.134;19.888;2023-05-07T02:30:55;17.64;70.67
70089;HTU21D;57460;47.134;19.888;2023-05-07T02:33:23;17.47;71.35
70089;HTU21D;57460;47.134;19.888;2023-05-07T02:35:50;17.29;73.63
70089;HTU21D;57460;47.134;19.888;2023-05-07T02:38:17;17.26;73.23
70089;HTU21D;57460;47.134;19.888;2023-05-07T02:40:43;17.29;73.57
70089;HTU21D;57460;47.134;19.888;2023-05-07T02:43:09;17.32;71.93
70089;HTU21D;57460;47.134;19.888;2023-05-07T02:45:35;17.29;72.23
70089;HTU21D;57460;47.134;19.888;2023-05-07T02:48:03;17.31;71.80
70089;HTU21D;57460;47.134;19.888;2023-05-07T02:50:29;17.24;72.86
70089;HTU21D;57460;47.134;19.888;2023-05-07T02:52:55;17.19;73.84
70089;HTU21D;57460;47.134;19.888;2023-05-07T02:55:21;17.14;73.21
70089;HTU21D;57460;47.134;19.888;2023-05-07T02:57:47;17.10;72.91
70089;HTU21D;57460;47.134;19.888;2023-05-07T03:00:14;17.11;72.35
70089;HTU21D;57460;47.134;19.888;2023-05-07T03:02:40;17.05;73.41
70089;HTU21D;57460;47.134;19.888;2023-05-07T03:05:06;16.99;73.09
70089;HTU21D;57460;47.134;19.888;2023-05-07T03:07:32;16.99;72.04
70089;HTU21D;57460;47.134;19.888;2023-05-07T03:09:58;16.92;72.41
70089;HTU21D;57460;47.134;19.888;2023-05-07T03:12:23;16.72;74.32
70089;HTU21D;57460;47.134;19.888;2023-05-07T03:14:49;16.61;73.66
70089;HTU21D;57460;47.134;19.888;2023-05-07T03:17:15;16.52;73.38
70089;HTU21D;57460;47.134;19.888;2023-05-07T03:19:41;16.52;72.77
70089;HTU21D;57460;47.134;19.888;2023-05-07T03:22:07;16.50;72.92
70089;HTU21D;57460;47.134;19.888;2023-05-07T03:24:33;16.42;73.08
70089;HTU21D;57460;47.134;19.888;2023-05-07T03:26:59;16.34;72.87
70089;HTU21D;57460;47.134;19.888;2023-05-07T03:29:26;16.28;72.89
70089;HTU21D;57460;47.134;19.888;2023-05-07T03:31:52;16.25;72.99
70089;HTU21D;57460;47.134;19.888;2023-05-07T03:34:18;16.29;71.93
70089;HTU21D;57460;47.134;19.888;2023-05-07T03:36:48;16.21;71.90
70089;HTU21D;57460;47.134;19.888;2023-05-07T03:39:14;16.14;72.38
70089;HTU21D;57460;47.134;19.888;2023-05-07T03:41:40;16.07;73.18
70089;HTU21D;57460;47.134;19.888;2023-05-07T03:44:06;16.02;74.15
70089;HTU21D;57460;47.134;19.888;2023-05-07T03:46:32;15.91;76.36
70089;HTU21D;57460;47.134;19.888;2023-05-07T03:48:58;15.85;76.31
70089;HTU21D;57460;47.134;19.888;2023-05-07T03:51:27;15.84;75.62
70089;HTU21D;57460;47.134;19.888;2023-05-07T03:53:53;15.87;75.17
70089;HTU21D;57460;47.134;19.888;2023-05-07T03:56:19;15.96;72.68
70089;HTU21D;57460;47.134;19.888;2023-05-07T03:58:47;15.99;73.28
70089;HTU21D;57460;47.134;19.888;2023-05-07T04:01:13;16.08;71.38
70089;HTU21D;57460;47.134;19.888;2023-05-07T04:03:38;15.95;73.44
70089;HTU21D;57460;47.134;19.888;2023-05-07T04:06:04;15.97;72.28
70089;HTU21D;57460;47.134;19.888;2023-05-07T04:08:30;15.90;74.82
70089;HTU21D;57460;47.134;19.888;2023-05-07T04:10:57;15.92;74.84
70089;HTU21D;57460;47.134;19.888;2023-05-07T04:13:23;15.80;77.55
70089;HTU21D;57460;47.134;19.888;2023-05-07T04:15:49;15.90;74.50
70089;HTU21D;57460;47.134;19.888;2023-05-07T04:18:15;16.01;76.05
70089;HTU21D;57460;47.134;19.888;2023-05-07T04:20:41;16.15;76.43
70089;HTU21D;57460;47.134;19.888;2023-05-07T04:23:07;16.30;74.35
70089;HTU21D;57460;47.134;19.888;2023-05-07T04:25:33;16.43;74.44
70089;HTU21D;57460;47.134;19.888;2023-05-07T04:27:59;16.48;76.09
70089;HTU21D;57460;47.134;19.888;2023-05-07T04:30:27;16.55;75.89
70089;HTU21D;57460;47.134;19.888;2023-05-07T04:32:53;16.64;73.83
70089;HTU21D;57460;47.134;19.888;2023-05-07T04:35:19;16.76;71.97
70089;HTU21D;57460;47.134;19.888;2023-05-07T04:37:45;16.80;72.73
70089;HTU21D;57460;47.134;19.888;2023-05-07T04:40:11;16.84;73.53
70089;HTU21D;57460;47.134;19.888;2023-05-07T04:42:36;16.84;76.16
70089;HTU21D;57460;47.134;19.888;2023-05-07T04:45:02;16.84;74.88
70089;HTU21D;57460;47.134;19.888;2023-05-07T04:47:28;16.85;75.04
70089;HTU21D;57460;47.134;19.888;2023-05-07T04:49:54;16.93;73.80
70089;HTU21D;57460;47.134;19.888;2023-05-07T04:52:20;16.99;74.09
70089;HTU21D;57460;47.134;19.888;2023-05-07T04:54:45;17.08;72.45
70089;HTU21D;57460;47.134;19.888;2023-05-07T04:57:11;17.22;71.33
70089;HTU21D;57460;47.134;19.888;2023-05-07T04:59:37;17.24;73.57
70089;HTU21D;57460;47.134;19.888;2023-05-07T05:02:03;17.37;73.74
70089;HTU21D;57460;47.134;19.888;2023-05-07T05:04:29;17.52;71.82
70089;HTU21D;57460;47.134;19.888;2023-05-07T05:06:55;17.62;70.85
70089;HTU21D;57460;47.134;19.888;2023-05-07T05:09:21;17.61;73.61
70089;HTU21D;57460;47.134;19.888;2023-05-07T05:11:47;17.62;73.47
70089;HTU21D;57460;47.134;19.888;2023-05-07T05:14:13;17.74;71.51
70089;HTU21D;57460;47.134;19.888;2023-05-07T05:16:39;17.82;72.58
70089;HTU21D;57460;47.134;19.888;2023-05-07T05:19:05;17.93;73.41
70089;HTU21D;57460;47.134;19.888;2023-05-07T05:21:31;18.00;74.90
70089;HTU21D;57460;47.134;19.888;2023-05-07T05:23:58;18.12;73.17
70089;HTU21D;57460;47.134;19.888;2023-05-07T05:26:24;18.28;73.41
70089;HTU21D;57460;47.134;19.888;2023-05-07T05:28:50;18.43;73.06
70089;HTU21D;57460;47.134;19.888;2023-05-07T05:31:16;18.50;70.46
70089;HTU21D;57460;47.134;19.888;2023-05-07T05:33:42;18.54;72.55
70089;HTU21D;57460;47.134;19.888;2023-05-07T05:36:11;18.58;71.48
70089;HTU21D;57460;47.134;19.888;2023-05-07T05:38:39;18.65;71.57
70089;HTU21D;57460;47.134;19.888;2023-05-07T05:41:05;18.76;71.28
70089;HTU21D;57460;47.134;19.888;2023-05-07T05:43:31;18.89;72.10
70089;HTU21D;57460;47.134;19.888;2023-05-07T05:45:57;19.03;71.84
70089;HTU21D;57460;47.134;19.888;2023-05-07T05:48:23;19.17;71.66
70089;HTU21D;57460;47.134;19.888;2023-05-07T05:50:49;19.39;68.88
70089;HTU21D;57460;47.134;19.888;2023-05-07T05:53:15;19.65;68.64
70089;HTU21D;57460;47.134;19.888;2023-05-07T05:55:41;19.70;70.18
70089;HTU21D;57460;47.134;19.888;2023-05-07T05:58:10;19.80;67.54
70089;HTU21D;57460;47.134;19.888;2023-05-07T06:00:36;19.77;68.83
70089;HTU21D;57460;47.134;19.888;2023-05-07T06:03:02;19.73;68.86
70089;HTU21D;57460;47.134;19.888;2023-05-07T06:05:27;19.76;68.78
70089;HTU21D;57460;47.134;19.888;2023-05-07T06:07:53;19.76;69.71
70089;HTU21D;57460;47.134;19.888;2023-05-07T06:10:19;19.76;67.49
70089;HTU21D;57460;47.134;19.888;2023-05-07T06:12:45;19.72;67.86
70089;HTU21D;57460;47.134;19.888;2023-05-07T06:15:10;19.71;67.23
70089;HTU21D;57460;47.134;19.888;2023-05-07T06:17:36;19.72;68.08
70089;HTU21D;57460;47.134;19.888;2023-05-07T06:20:06;19.74;70.31
70089;HTU21D;57460;47.134;19.888;2023-05-07T06:22:32;19.89;69.20
70089;HTU21D;57460;47.134;19.888;2023-05-07T06:24:59;20.05;67.95
70089;HTU21D;57460;47.134;19.888;2023-05-07T06:27:24;20.13;65.45
70089;HTU21D;57460;47.134;19.888;2023-05-07T06:29:50;20.22;66.95
70089;HTU21D;57460;47.134;19.888;2023-05-07T06:32:16;20.35;66.19
70089;HTU21D;57460;47.134;19.888;2023-05-07T06:34:42;20.48;64.91
70089;HTU21D;57460;47.134;19.888;2023-05-07T06:37:08;20.57;62.92
70089;HTU21D;57460;47.134;19.888;2023-05-07T06:39:34;20.59;63.18
70089;HTU21D;57460;47.134;19.888;2023-05-07T06:42:01;20.74;64.45
70089;HTU21D;57460;47.134;19.888;2023-05-07T06:44:30;20.83;62.37
70089;HTU21D;57460;47.134;19.888;2023-05-07T06:46:57;20.84;61.41
70089;HTU21D;57460;47.134;19.888;2023-05-07T06:49:23;20.90;62.60
70089;HTU21D;57460;47.134;19.888;2023-05-07T06:51:49;21.01;64.28
70089;HTU21D;57460;47.134;19.888;2023-05-07T06:54:15;21.01;59.32
70089;HTU21D;57460;47.134;19.888;2023-05-07T06:56:41;21.13;62.86
70089;HTU21D;57460;47.134;19.888;2023-05-07T06:59:07;21.22;57.25
70089;HTU21D;57460;47.134;19.888;2023-05-07T07:01:33;21.36;62.83
70089;HTU21D;57460;47.134;19.888;2023-05-07T07:03:59;21.59;62.74
70089;HTU21D;57460;47.134;19.888;2023-05-07T07:06:25;21.65;56.84
70089;HTU21D;57460;47.134;19.888;2023-05-07T07:08:50;21.68;60.22
70089;HTU21D;57460;47.134;19.888;2023-05-07T07:11:16;21.78;56.67
70089;HTU21D;57460;47.134;19.888;2023-05-07T07:13:42;21.84;59.11
70089;HTU21D;57460;47.134;19.888;2023-05-07T07:16:08;22.07;58.39
70089;HTU21D;57460;47.134;19.888;2023-05-07T07:18:34;22.21;60.11
70089;HTU21D;57460;47.134;19.888;2023-05-07T07:21:01;22.28;59.44
70089;HTU21D;57460;47.134;19.888;2023-05-07T07:23:27;22.26;59.32
70089;HTU21D;57460;47.134;19.888;2023-05-07T07:25:53;22.28;55.73
70089;HTU21D;57460;47.134;19.888;2023-05-07T07:28:21;22.41;57.48
70089;HTU21D;57460;47.134;19.888;2023-05-07T07:30:47;22.50;56.45
70089;HTU21D;57460;47.134;19.888;2023-05-07T07:33:13;22.60;57.31
70089;HTU21D;57460;47.134;19.888;2023-05-07T07:35:43;22.75;57.82
70089;HTU21D;57460;47.134;19.888;2023-05-07T07:38:09;23.00;55.52
70089;HTU21D;57460;47.134;19.888;2023-05-07T07:40:35;23.35;55.47
70089;HTU21D;57460;47.134;19.888;2023-05-07T07:43:01;23.56;52.40
70089;HTU21D;57460;47.134;19.888;2023-05-07T07:45:27;23.51;54.62
70089;HTU21D;57460;47.134;19.888;2023-05-07T07:47:55;23.61;56.76
70089;HTU21D;57460;47.134;19.888;2023-05-07T07:50:21;23.76;54.68
70089;HTU21D;57460;47.134;19.888;2023-05-07T07:52:48;23.83;55.20
70089;HTU21D;57460;47.134;19.888;2023-05-07T07:55:14;23.89;52.77
70089;HTU21D;57460;47.134;19.888;2023-05-07T07:57:46;23.94;53.78
70089;HTU21D;57460;47.134;19.888;2023-05-07T08:00:13;23.80;52.62
70089;HTU21D;57460;47.134;19.888;2023-05-07T08:02:39;23.84;52.89
70089;HTU21D;57460;47.134;19.888;2023-05-07T08:05:05;23.79;52.95
70089;HTU21D;57460;47.134;19.888;2023-05-07T08:07:31;23.80;54.39
70089;HTU21D;57460;47.134;19.888;2023-05-07T08:09:57;23.79;52.61
70089;HTU21D;57460;47.134;19.888;2023-05-07T08:12:22;23.90;53.43
70089;HTU21D;57460;47.134;19.888;2023-05-07T08:14:48;23.95;53.72
70089;HTU21D;57460;47.134;19.888;2023-05-07T08:17:14;23.98;53.68
70089;HTU21D;57460;47.134;19.888;2023-05-07T08:19:42;24.01;52.12
70089;HTU21D;57460;47.134;19.888;2023-05-07T08:22:08;23.99;49.23
70089;HTU21D;57460;47.134;19.888;2023-05-07T08:24:34;24.05;53.21
70089;HTU21D;57460;47.134;19.888;2023-05-07T08:27:00;24.09;52.77
70089;HTU21D;57460;47.134;19.888;2023-05-07T08:29:25;24.19;52.67
70089;HTU21D;57460;47.134;19.888;2023-05-07T08:31:51;24.26;53.24
70089;HTU21D;57460;47.134;19.888;2023-05-07T08:34:17;24.16;51.68
70089;HTU21D;57460;47.134;19.888;2023-05-07T08:36:43;24.24;50.50
70089;HTU21D;57460;47.134;19.888;2023-05-07T08:39:09;24.36;53.01
70089;HTU21D;57460;47.134;19.888;2023-05-07T08:41:35;24.57;51.88
70089;HTU21D;57460;47.134;19.888;2023-05-07T08:44:03;24.59;51.41
70089;HTU21D;57460;47.134;19.888;2023-05-07T08:46:32;24.33;50.48
70089;HTU21D;57460;47.134;19.888;2023-05-07T08:48:58;24.17;49.35
70089;HTU21D;57460;47.134;19.888;2023-05-07T08:51:24;24.06;50.92
70089;HTU21D;57460;47.134;19.888;2023-05-07T08:53:50;24.10;52.65
70089;HTU21D;57460;47.134;19.888;2023-05-07T08:56:16;24.16;51.90
70089;HTU21D;57460;47.134;19.888;2023-05-07T08:58:43;24.27;51.95
70089;HTU21D;57460;47.134;19.888;2023-05-07T09:01:13;24.17;51.53
70089;HTU21D;57460;47.134;19.888;2023-05-07T09:03:40;24.21;52.15
70089;HTU21D;57460;47.134;19.888;2023-05-07T09:06:06;24.30;50.69
70089;HTU21D;57460;47.134;19.888;2023-05-07T09:08:33;24.28;51.67
70089;HTU21D;57460;47.134;19.888;2023-05-07T09:11:00;24.56;51.27
70089;HTU21D;57460;47.134;19.888;2023-05-07T09:13:27;24.55;50.97
70089;HTU21D;57460;47.134;19.888;2023-05-07T09:15:53;24.71;49.95
70089;HTU21D;57460;47.134;19.888;2023-05-07T09:18:19;24.71;50.35
70089;HTU21D;57460;47.134;19.888;2023-05-07T09:20:45;24.64;48.60
70089;HTU21D;57460;47.134;19.888;2023-05-07T09:23:11;24.60;48.58
70089;HTU21D;57460;47.134;19.888;2023-05-07T09:25:37;24.63;50.19
70089;HTU21D;57460;47.134;19.888;2023-05-07T09:28:04;24.50;48.30
70089;HTU21D;57460;47.134;19.888;2023-05-07T09:30:33;24.60;50.42
70089;HTU21D;57460;47.134;19.888;2023-05-07T09:33:02;24.69;49.41
70089;HTU21D;57460;47.134;19.888;2023-05-07T09:35:30;24.82;50.33
70089;HTU21D;57460;47.134;19.888;2023-05-07T09:37:57;25.06;50.52
70089;HTU21D;57460;47.134;19.888;2023-05-07T09:40:26;24.85;50.69
70089;HTU21D;57460;47.134;19.888;2023-05-07T09:42:53;24.66;49.47
70089;HTU21D;57460;47.134;19.888;2023-05-07T09:45:25;24.55;50.49
70089;HTU21D;57460;47.134;19.888;2023-05-07T09:47:58;24.58;50.94
70089;HTU21D;57460;47.134;19.888;2023-05-07T09:50:27;24.78;50.02
70089;HTU21D;57460;47.134;19.888;2023-05-07T09:52:57;24.65;50.42
70089;HTU21D;57460;47.134;19.888;2023-05-07T09:55:24;24.77;50.02
70089;HTU21D;57460;47.134;19.888;2023-05-07T09:57:51;24.77;49.79
70089;HTU21D;57460;47.134;19.888;2023-05-07T10:00:22;24.68;49.64
70089;HTU21D;57460;47.134;19.888;2023-05-07T10:02:51;24.64;51.17
70089;HTU21D;57460;47.134;19.888;2023-05-07T10:05:22;24.55;50.69
70089;HTU21D;57460;47.134;19.888;2023-05-07T10:07:48;24.57;51.84
70089;HTU21D;57460;47.134;19.888;2023-05-07T10:10:14;24.49;50.34
70089;HTU21D;57460;47.134;19.888;2023-05-07T10:12:41;24.61;51.73
70089;HTU21D;57460;47.134;19.888;2023-05-07T10:15:11;24.49;52.14
70089;HTU21D;57460;47.134;19.888;2023-05-07T10:17:39;24.55;51.72
70089;HTU21D;57460;47.134;19.888;2023-05-07T10:20:06;24.56;50.45
70089;HTU21D;57460;47.134;19.888;2023-05-07T10:22:44;24.49;52.56
70089;HTU21D;57460;47.134;19.888;2023-05-07T10:25:23;24.64;52.17
70089;HTU21D;57460;47.134;19.888;2023-05-07T10:27:53;24.71;51.71
70089;HTU21D;57460;47.134;19.888;2023-05-07T10:32:56;24.63;52.05
70089;HTU21D;57460;47.134;19.888;2023-05-07T10:35:26;24.57;49.68
70089;HTU21D;57460;47.134;19.888;2023-05-07T10:37:55;24.72;51.22
70089;HTU21D;57460;47.134;19.888;2023-05-07T10:40:21;24.69;49.69
70089;HTU21D;57460;47.134;19.888;2023-05-07T10:42:57;24.72;50.72
70089;HTU21D;57460;47.134;19.888;2023-05-07T10:45:25;24.79;51.27
70089;HTU21D;57460;47.134;19.888;2023-05-07T10:48:13;24.82;51.39
70089;HTU21D;57460;47.134;19.888;2023-05-07T10:50:41;24.63;52.03
70089;HTU21D;57460;47.134;19.888;2023-05-07T10:56:31;24.41;52.32
70089;HTU21D;57460;47.134;19.888;2023-05-07T10:58:38;24.40;52.11
70089;HTU21D;57460;47.134;19.888;2023-05-07T11:01:04;24.31;52.46
70089;HTU21D;57460;47.134;19.888;2023-05-07T11:03:30;24.31;52.36
70089;HTU21D;57460;47.134;19.888;2023-05-07T11:06:13;24.31;52.49
70089;HTU21D;57460;47.134;19.888;2023-05-07T11:08:59;24.40;52.31
70089;HTU21D;57460;47.134;19.888;2023-05-07T11:11:47;24.31;52.64
70089;HTU21D;57460;47.134;19.888;2023-05-07T11:14:14;24.35;51.81
70089;HTU21D;57460;47.134;19.888;2023-05-07T11:17:03;24.10;51.20
70089;HTU21D;57460;47.134;19.888;2023-05-07T11:19:48;24.21;51.90
70089;HTU21D;57460;47.134;19.888;2023-05-07T11:25:03;24.59;51.54
70089;HTU21D;57460;47.134;19.888;2023-05-07T11:27:29;24.79;51.29
70089;HTU21D;57460;47.134;19.888;2023-05-07T11:29:56;24.77;51.56
70089;HTU21D;57460;47.134;19.888;2023-05-07T11:32:30;24.82;50.18
70089;HTU21D;57460;47.134;19.888;2023-05-07T11:34:58;24.72;51.49
70089;HTU21D;57460;47.134;19.888;2023-05-07T11:37:26;24.73;50.85
70089;HTU21D;57460;47.134;19.888;2023-05-07T11:40:08;24.89;51.04
70089;HTU21D;57460;47.134;19.888;2023-05-07T11:42:40;24.86;50.21
70089;HTU21D;57460;47.134;19.888;2023-05-07T11:45:08;24.45;51.81
70089;HTU21D;57460;47.134;19.888;2023-05-07T11:47:34;24.50;51.85
70089;HTU21D;57460;47.134;19.888;2023-05-07T11:50:05;24.30;52.24
70089;HTU21D;57460;47.134;19.888;2023-05-07T11:52:32;24.00;53.95
70089;HTU21D;57460;47.134;19.888;2023-05-07T11:54:59;23.87;55.49
70089;HTU21D;57460;47.134;19.888;2023-05-07T11:57:27;23.82;54.32
70089;HTU21D;57460;47.134;19.888;2023-05-07T11:59:58;23.86;54.22
70089;HTU21D;57460;47.134;19.888;2023-05-07T12:02:25;23.81;54.43
70089;HTU21D;57460;47.134;19.888;2023-05-07T12:04:51;23.71;54.65
70089;HTU21D;57460;47.134;19.888;2023-05-07T12:07:17;23.59;56.20
70089;HTU21D;57460;47.134;19.888;2023-05-07T12:09:45;23.65;55.58
70089;HTU21D;57460;47.134;19.888;2023-05-07T12:12:12;23.72;54.86
70089;HTU21D;57460;47.134;19.888;2023-05-07T12:14:41;23.58;55.76
70089;HTU21D;57460;47.134;19.888;2023-05-07T12:17:08;23.60;55.29
70089;HTU21D;57460;47.134;19.888;2023-05-07T12:19:35;23.60;56.20
70089;HTU21D;57460;47.134;19.888;2023-05-07T12:22:05;23.79;55.22
70089;HTU21D;57460;47.134;19.888;2023-05-07T12:25:02;23.89;55.35
70089;HTU21D;57460;47.134;19.888;2023-05-07T12:27:28;24.16;55.36
70089;HTU21D;57460;47.134;19.888;2023-05-07T12:29:54;24.30;55.26
70089;HTU21D;57460;47.134;19.888;2023-05-07T12:32:22;24.59;54.26
70089;HTU21D;57460;47.134;19.888;2023-05-07T12:34:51;24.94;54.10
70089;HTU21D;57460;47.134;19.888;2023-05-07T12:37:23;25.09;53.59
70089;HTU21D;57460;47.134;19.888;2023-05-07T12:40:03;25.35;53.27
70089;HTU21D;57460;47.134;19.888;2023-05-07T12:42:35;25.79;51.12
70089;HTU21D;57460;47.134;19.888;2023-05-07T12:45:08;25.76;49.79
70089;HTU21D;57460;47.134;19.888;2023-05-07T12:47:34;25.81;46.56
70089;HTU21D;57460;47.134;19.888;2023-05-07T12:50:00;25.83;48.82
70089;HTU21D;57460;47.134;19.888;2023-05-07T12:52:26;25.77;45.17
70089;HTU21D;57460;47.134;19.888;2023-05-07T12:54:51;25.91;47.26
70089;HTU21D;57460;47.134;19.888;2023-05-07T12:57:19;25.96;46.44
70089;HTU21D;57460;47.134;19.888;2023-05-07T12:59:46;25.89;46.44
70089;HTU21D;57460;47.134;19.888;2023-05-07T13:02:12;25.84;47.68
70089;HTU21D;57460;47.134;19.888;2023-05-07T13:04:38;26.01;47.26
70089;HTU21D;57460;47.134;19.888;2023-05-07T13:07:03;26.15;46.19
70089;HTU21D;57460;47.134;19.888;2023-05-07T13:09:31;26.34;46.55
70089;HTU21D;57460;47.134;19.888;2023-05-07T13:11:57;26.43;46.86
70089;HTU21D;57460;47.134;19.888;2023-05-07T13:14:26;26.65;45.35
70089;HTU21D;57460;47.134;19.888;2023-05-07T13:16:52;26.83;45.77
70089;HTU21D;57460;47.134;19.888;2023-05-07T13:19:18;26.97;45.26
70089;HTU21D;57460;47.134;19.888;2023-05-07T13:21:44;27.17;45.70
70089;HTU21D;57460;47.134;19.888;2023-05-07T13:24:10;27.37;45.90
70089;HTU21D;57460;47.134;19.888;2023-05-07T13:26:35;27.49;45.38
70089;HTU21D;57460;47.134;19.888;2023-05-07T13:29:01;27.39;42.94
70089;HTU21D;57460;47.134;19.888;2023-05-07T13:31:27;27.38;44.50
70089;HTU21D;57460;47.134;19.888;2023-05-07T13:33:53;27.08;44.38
70089;HTU21D;57460;47.134;19.888;2023-05-07T13:36:19;27.24;42.09
70089;HTU21D;57460;47.134;19.888;2023-05-07T13:38:45;27.25;42.52
70089;HTU21D;57460;47.134;19.888;2023-05-07T13:41:12;27.57;40.90
70089;HTU21D;57460;47.134;19.888;2023-05-07T13:43:38;27.74;42.97
70089;HTU21D;57460;47.134;19.888;2023-05-07T13:46:04;27.54;39.33
70089;HTU21D;57460;47.134;19.888;2023-05-07T13:48:29;27.56;41.86
70089;HTU21D;57460;47.134;19.888;2023-05-07T13:50:55;27.55;38.87
70089;HTU21D;57460;47.134;19.888;2023-05-07T13:53:21;27.64;39.56
70089;HTU21D;57460;47.134;19.888;2023-05-07T13:55:47;27.72;39.87
70089;HTU21D;57460;47.134;19.888;2023-05-07T13:58:12;27.78;40.51
70089;HTU21D;57460;47.134;19.888;2023-05-07T14:00:38;27.78;39.72
70089;HTU21D;57460;47.134;19.888;2023-05-07T14:03:05;27.86;41.62
70089;HTU21D;57460;47.134;19.888;2023-05-07T14:05:30;27.90;40.65
70089;HTU21D;57460;47.134;19.888;2023-05-07T14:07:59;27.82;38.65
70089;HTU21D;57460;47.134;19.888;2023-05-07T14:10:25;27.72;38.12
70089;HTU21D;57460;47.134;19.888;2023-05-07T14:12:51;27.58;39.35
70089;HTU21D;57460;47.134;19.888;2023-05-07T14:15:18;27.57;41.66
70089;HTU21D;57460;47.134;19.888;2023-05-07T14:17:44;27.56;41.84
70089;HTU21D;57460;47.134;19.888;2023-05-07T14:20:11;27.38;41.39
70089;HTU21D;57460;47.134;19.888;2023-05-07T14:22:37;27.29;42.61
70089;HTU21D;57460;47.134;19.888;2023-05-07T14:25:03;26.87;42.65
70089;HTU21D;57460;47.134;19.888;2023-05-07T14:27:29;26.13;41.97
70089;HTU21D;57460;47.134;19.888;2023-05-07T14:29:55;25.68;43.55
70089;HTU21D;57460;47.134;19.888;2023-05-07T14:32:21;24.77;46.31
70089;HTU21D;57460;47.134;19.888;2023-05-07T14:34:47;23.98;48.33
70089;HTU21D;57460;47.134;19.888;2023-05-07T14:37:13;23.45;50.21
70089;HTU21D;57460;47.134;19.888;2023-05-07T14:39:39;23.03;51.46
70089;HTU21D;57460;47.134;19.888;2023-05-07T14:42:05;22.60;54.25
70089;HTU21D;57460;47.134;19.888;2023-05-07T14:44:36;22.25;56.89
70089;HTU21D;57460;47.134;19.888;2023-05-07T14:47:02;21.96;59.93
70089;HTU21D;57460;47.134;19.888;2023-05-07T14:49:29;21.76;62.42
70089;HTU21D;57460;47.134;19.888;2023-05-07T14:51:57;21.69;57.85
70089;HTU21D;57460;47.134;19.888;2023-05-07T14:54:25;21.59;61.61
70089;HTU21D;57460;47.134;19.888;2023-05-07T14:56:51;21.28;61.18
70089;HTU21D;57460;47.134;19.888;2023-05-07T14:59:18;21.02;60.30
70089;HTU21D;57460;47.134;19.888;2023-05-07T15:01:49;21.13;61.92
70089;HTU21D;57460;47.134;19.888;2023-05-07T15:04:15;21.01;61.60
70089;HTU21D;57460;47.134;19.888;2023-05-07T15:06:41;20.94;63.11
70089;HTU21D;57460;47.134;19.888;2023-05-07T15:09:07;20.98;61.30
70089;HTU21D;57460;47.134;19.888;2023-05-07T15:11:34;20.89;64.11